Terminal Aerodrome Forecast
Issued by NWS

Home | Current Version | Previous Version | Text Only | Print | Product List | Glossary On
Versions: 1 2 3 4 5 6 7 8 9 10 11 12 13 14 15 16 17 18 19 20 21
000
FTUS43 KPAH 221120
TAFCGI
TAF
KCGI 221120Z 2212/2312 15008KT P6SM -SHRA BKN025
     FM230000 16009KT 6SM -SHRA BKN020
     FM230900 17010KT 5SM SHRA BR BKN015=

USA.gov is the U.S. government's official web portal to all federal, state and local government web resources and services.